Time;durP1;ratioP1;P1;durP2;ratioP2;P2;SDS_P1;SDS_P2;PMS_P1;PMS_P2;Temp;Humidity;BMP_temperature;BMP_pressure;BME280_temperature;BME280_humidity;BME280_pressure;Samples;Min_cycle;Max_cycle;Signal;HPM_P1;HPM_P2
2021/07/29 00:01:49;;;;;;;;;;;25.20;52.60;;;;;;1548658;74;1106;-63
2021/07/29 00:03:50;;;;;;;;;;;25.20;52.60;;;;;;1540333;74;797;-63
2021/07/29 00:05:52;;;;;;;;;;;25.20;52.50;;;;;;1546841;74;1947;-63
2021/07/29 00:07:54;;;;;;;;;;;25.20;52.60;;;;;;1546094;74;651;-64
2021/07/29 00:09:56;;;;;;;;;;;25.20;52.60;;;;;;1556167;74;791;-65
2021/07/29 00:11:58;;;;;;;;;;;25.30;52.50;;;;;;1550019;76;1119;-64
2021/07/29 00:14:01;;;;;;;;;;;25.10;52.30;;;;;;1541826;74;856;-63
2021/07/29 00:16:03;;;;;;;;;;;25.20;52.40;;;;;;1547690;74;739;-63
2021/07/29 00:20:09;;;;;;;;;;;25.20;52.20;;;;;;1543503;76;853;-63
2021/07/29 00:22:11;;;;;;;;;;;25.20;52.10;;;;;;1546071;74;1078;-63
2021/07/29 00:24:13;;;;;;;;;;;25.20;52.10;;;;;;1550392;74;836;-65
2021/07/29 00:26:15;;;;;;;;;;;25.30;52.00;;;;;;1543891;74;1927;-66
2021/07/29 00:28:17;;;;;;;;;;;25.20;52.10;;;;;;1534975;76;763;-65
2021/07/29 00:30:19;;;;;;;;;;;25.10;52.10;;;;;;1542677;74;739;-64
2021/07/29 00:32:21;;;;;;;;;;;25.20;52.10;;;;;;1546171;74;1126;-63
2021/07/29 00:34:23;;;;;;;;;;;25.20;52.10;;;;;;1554965;74;687;-63
2021/07/29 00:36:25;;;;;;;;;;;25.20;52.10;;;;;;1543663;74;686;-62
2021/07/29 00:38:27;;;;;;;;;;;25.20;52.00;;;;;;1549084;74;660;-63
2021/07/29 00:40:29;;;;;;;;;;;25.20;52.00;;;;;;1544906;74;728;-62
2021/07/29 00:42:30;;;;;;;;;;;25.20;52.00;;;;;;1543034;74;1117;-64
2021/07/29 00:44:34;;;;;;;;;;;25.30;52.00;;;;;;1546656;74;1934;-64
2021/07/29 00:46:36;;;;;;;;;;;25.20;52.00;;;;;;1539322;74;750;-65
2021/07/29 00:48:38;;;;;;;;;;;25.30;51.80;;;;;;1550004;74;958;-64
2021/07/29 00:50:40;;;;;;;;;;;25.20;51.80;;;;;;1541227;74;763;-63
2021/07/29 00:52:42;;;;;;;;;;;25.20;51.80;;;;;;1542306;74;1115;-64
2021/07/29 00:54:44;;;;;;;;;;;25.30;51.90;;;;;;1539556;74;813;-64
2021/07/29 00:56:46;;;;;;;;;;;25.20;51.80;;;;;;1545636;74;629;-65
2021/07/29 00:58:48;;;;;;;;;;;25.20;51.80;;;;;;1546248;76;699;-64
2021/07/29 01:00:49;;;;;;;;;;;25.20;51.90;;;;;;1541389;74;792;-62
2021/07/29 01:02:53;;;;;;;;;;;25.30;51.80;;;;;;1540054;74;1108;-62
2021/07/29 01:04:55;;;;;;;;;;;25.20;51.70;;;;;;1537717;74;1918;-62
2021/07/29 01:06:57;;;;;;;;;;;25.10;51.80;;;;;;1547164;74;732;-62
2021/07/29 01:09:02;;;;;;;;;;;25.10;51.80;;;;;;1536938;74;745;-62
2021/07/29 01:11:04;;;;;;;;;;;25.10;51.80;;;;;;1542122;74;1873;-63
2021/07/29 01:13:05;;;;;;;;;;;25.10;51.70;;;;;;1547925;74;1121;-62
2021/07/29 01:15:08;;;;;;;;;;;25.20;51.60;;;;;;1546917;74;762;-62
2021/07/29 01:17:10;;;;;;;;;;;25.20;51.50;;;;;;1544389;74;820;-63
2021/07/29 01:19:12;;;;;;;;;;;25.10;51.50;;;;;;1543024;74;645;-62
2021/07/29 01:21:14;;;;;;;;;;;25.20;51.50;;;;;;1544140;74;882;-63
2021/07/29 01:23:15;;;;;;;;;;;25.10;51.40;;;;;;1539175;74;1103;-62
2021/07/29 01:25:17;;;;;;;;;;;25.20;51.40;;;;;;1545491;74;1952;-62
2021/07/29 01:27:19;;;;;;;;;;;25.10;51.50;;;;;;1543828;74;730;-62
2021/07/29 01:29:21;;;;;;;;;;;25.20;51.40;;;;;;1547786;74;767;-62
2021/07/29 01:31:23;;;;;;;;;;;25.20;51.30;;;;;;1547135;74;748;-62
2021/07/29 01:33:25;;;;;;;;;;;25.20;51.30;;;;;;1541656;74;1116;-62
2021/07/29 01:35:27;;;;;;;;;;;25.10;51.20;;;;;;1544803;74;902;-63
2021/07/29 01:37:29;;;;;;;;;;;25.20;51.10;;;;;;1547547;74;823;-62
2021/07/29 01:39:31;;;;;;;;;;;25.20;51.30;;;;;;1545488;74;220510;-69
2021/07/29 01:41:33;;;;;;;;;;;25.10;51.10;;;;;;1604819;72;790;-68
2021/07/29 01:43:35;;;;;;;;;;;25.10;51.10;;;;;;1599122;72;664;-75
2021/07/29 01:45:37;;;;;;;;;;;25.20;51.10;;;;;;1609746;72;1951;-69
2021/07/29 01:47:38;;;;;;;;;;;25.20;51.00;;;;;;1598912;72;796;-69
2021/07/29 01:49:40;;;;;;;;;;;25.10;51.00;;;;;;1615258;71;1187;-68
2021/07/29 01:51:42;;;;;;;;;;;25.20;51.10;;;;;;1631340;72;721;-71
2021/07/29 01:53:44;;;;;;;;;;;25.10;51.00;;;;;;1632440;72;727;-72
2021/07/29 01:55:46;;;;;;;;;;;25.10;51.00;;;;;;1621930;71;712;-69
2021/07/29 01:57:48;;;;;;;;;;;25.20;51.00;;;;;;1627219;71;736;-65
2021/07/29 01:59:50;;;;;;;;;;;25.20;51.00;;;;;;1625536;72;1126;-69
2021/07/29 02:01:52;;;;;;;;;;;25.10;51.00;;;;;;1626541;71;779;-70
2021/07/29 02:03:54;;;;;;;;;;;25.20;51.00;;;;;;1625866;71;772;-69
2021/07/29 02:05:55;;;;;;;;;;;25.10;51.00;;;;;;1621565;71;1928;-70
2021/07/29 02:07:57;;;;;;;;;;;25.20;51.00;;;;;;1627275;71;953;-71
2021/07/29 02:09:59;;;;;;;;;;;25.20;51.00;;;;;;1626441;71;1170;-71
2021/07/29 02:12:01;;;;;;;;;;;25.10;51.00;;;;;;1623820;71;786;-72
2021/07/29 02:14:03;;;;;;;;;;;25.20;51.20;;;;;;1626447;72;829;-69
2021/07/29 02:16:10;;;;;;;;;;;25.10;51.30;;;;;;1631283;71;861;-70
2021/07/29 02:18:11;;;;;;;;;;;25.20;51.30;;;;;;1624857;72;1585;-72
2021/07/29 02:20:13;;;;;;;;;;;25.10;51.20;;;;;;1621768;71;1075;-69
2021/07/29 02:22:16;;;;;;;;;;;25.10;51.20;;;;;;1626590;72;750;-69
2021/07/29 02:24:17;;;;;;;;;;;25.10;51.30;;;;;;1626480;71;769;-69
2021/07/29 02:26:19;;;;;;;;;;;25.10;51.30;;;;;;1629718;71;1940;-70
2021/07/29 02:28:21;;;;;;;;;;;25.10;51.30;;;;;;1626366;71;777;-69
2021/07/29 02:30:23;;;;;;;;;;;25.10;51.30;;;;;;1622336;71;1105;-72
2021/07/29 02:32:25;;;;;;;;;;;25.20;51.40;;;;;;1629720;71;776;-69
2021/07/29 02:34:27;;;;;;;;;;;25.20;51.30;;;;;;1625808;71;779;-69
2021/07/29 02:36:29;;;;;;;;;;;25.20;51.30;;;;;;1629914;71;661;-71
2021/07/29 02:38:31;;;;;;;;;;;25.10;51.30;;;;;;1628990;71;750;-69
2021/07/29 02:40:33;;;;;;;;;;;25.10;51.30;;;;;;1631876;71;1109;-71
2021/07/29 02:42:35;;;;;;;;;;;25.20;51.30;;;;;;1632589;71;752;-71
2021/07/29 02:44:37;;;;;;;;;;;25.10;51.30;;;;;;1633704;71;774;-69
2021/07/29 02:46:38;;;;;;;;;;;25.20;51.20;;;;;;1624517;71;1936;-70
2021/07/29 02:48:40;;;;;;;;;;;25.20;51.20;;;;;;1623963;71;796;-69
2021/07/29 02:50:42;;;;;;;;;;;25.20;51.20;;;;;;1630981;71;1122;-68
2021/07/29 02:52:44;;;;;;;;;;;25.20;51.10;;;;;;1629248;71;739;-73
2021/07/29 02:54:47;;;;;;;;;;;25.10;51.50;;;;;;1621431;71;784;-73
2021/07/29 02:56:49;;;;;;;;;;;25.20;51.70;;;;;;1632646;71;779;-73
2021/07/29 02:58:51;;;;;;;;;;;25.10;51.80;;;;;;1630280;71;1118;-73
2021/07/29 03:00:53;;;;;;;;;;;25.10;51.80;;;;;;1629871;71;758;-73
2021/07/29 03:02:55;;;;;;;;;;;25.20;51.80;;;;;;1631469;71;708;-73
2021/07/29 03:04:57;;;;;;;;;;;25.20;51.80;;;;;;1635072;72;752;-73
2021/07/29 03:06:59;;;;;;;;;;;25.10;51.90;;;;;;1629924;72;1948;-73
2021/07/29 03:09:01;;;;;;;;;;;25.10;52.00;;;;;;1628673;72;1169;-73
2021/07/29 03:11:03;;;;;;;;;;;25.10;52.10;;;;;;1628756;71;760;-74
2021/07/29 03:13:05;;;;;;;;;;;25.20;52.10;;;;;;1626793;71;667;-73
2021/07/29 03:15:07;;;;;;;;;;;25.20;52.20;;;;;;1632068;71;932;-72
2021/07/29 03:17:09;;;;;;;;;;;25.20;52.20;;;;;;1626754;71;715;-72
2021/07/29 03:19:11;;;;;;;;;;;25.10;52.20;;;;;;1621992;71;1138;-72
2021/07/29 03:21:13;;;;;;;;;;;25.20;52.30;;;;;;1629845;71;730;-70
2021/07/29 03:23:15;;;;;;;;;;;25.20;52.40;;;;;;1642276;71;798;-71
2021/07/29 03:25:16;;;;;;;;;;;25.20;52.50;;;;;;1626647;71;790;-72
2021/07/29 03:27:18;;;;;;;;;;;25.20;52.40;;;;;;1622406;72;1940;-72
2021/07/29 03:29:20;;;;;;;;;;;25.20;52.50;;;;;;1631719;71;1237;-72
2021/07/29 03:31:22;;;;;;;;;;;25.20;52.50;;;;;;1623081;72;742;-72
2021/07/29 03:33:24;;;;;;;;;;;25.20;52.50;;;;;;1637266;72;745;-71
2021/07/29 03:35:26;;;;;;;;;;;25.20;52.40;;;;;;1633775;72;766;-71
2021/07/29 03:37:28;;;;;;;;;;;25.20;52.30;;;;;;1637195;71;748;-71
2021/07/29 03:39:30;;;;;;;;;;;25.20;52.40;;;;;;1629372;71;1123;-71
2021/07/29 03:41:32;;;;;;;;;;;25.20;52.50;;;;;;1627070;71;768;-72
2021/07/29 03:43:34;;;;;;;;;;;25.20;52.30;;;;;;1637927;71;748;-69
2021/07/29 03:45:36;;;;;;;;;;;25.20;52.40;;;;;;1633770;71;788;-72
2021/07/29 03:47:38;;;;;;;;;;;25.20;52.40;;;;;;1634979;72;685;-71
2021/07/29 03:49:40;;;;;;;;;;;25.20;52.40;;;;;;1632158;71;1154;-71
2021/07/29 03:51:42;;;;;;;;;;;25.20;52.40;;;;;;1637082;71;770;-71
2021/07/29 03:53:44;;;;;;;;;;;25.20;52.50;;;;;;1623077;71;669;-72
2021/07/29 03:55:46;;;;;;;;;;;25.20;52.50;;;;;;1634209;72;660;-73
2021/07/29 03:57:48;;;;;;;;;;;25.20;52.50;;;;;;1633980;72;701;-72
2021/07/29 03:59:50;;;;;;;;;;;25.20;52.50;;;;;;1631867;71;1177;-71
2021/07/29 04:01:52;;;;;;;;;;;25.20;52.50;;;;;;1634338;71;697;-73
2021/07/29 04:03:54;;;;;;;;;;;25.20;52.50;;;;;;1631100;71;752;-72
2021/07/29 04:05:56;;;;;;;;;;;25.20;52.60;;;;;;1628963;72;1925;-72
2021/07/29 04:07:57;;;;;;;;;;;25.20;52.60;;;;;;1621625;71;802;-72
2021/07/29 04:09:59;;;;;;;;;;;25.20;52.60;;;;;;1638044;71;1157;-72
2021/07/29 04:12:01;;;;;;;;;;;25.20;52.70;;;;;;1627535;71;779;-71
2021/07/29 04:14:03;;;;;;;;;;;25.10;52.70;;;;;;1619175;71;616;-72
2021/07/29 04:16:05;;;;;;;;;;;25.20;52.70;;;;;;1621854;71;701;-72
2021/07/29 04:18:07;;;;;;;;;;;25.20;52.70;;;;;;1625642;72;722;-72
2021/07/29 04:20:09;;;;;;;;;;;25.10;52.70;;;;;;1624981;71;1126;-69
2021/07/29 04:22:10;;;;;;;;;;;25.20;52.70;;;;;;1621442;71;788;-72
2021/07/29 04:24:12;;;;;;;;;;;25.20;52.70;;;;;;1625555;72;878;-73
2021/07/29 04:26:14;;;;;;;;;;;25.20;52.70;;;;;;1622765;71;1945;-72
2021/07/29 04:28:16;;;;;;;;;;;25.20;52.80;;;;;;1632706;71;730;-71
2021/07/29 04:30:18;;;;;;;;;;;25.20;52.80;;;;;;1632294;71;1122;-73
2021/07/29 04:32:23;;;;;;;;;;;25.20;52.80;;;;;;1631199;71;729;-74
2021/07/29 04:34:25;;;;;;;;;;;25.20;52.80;;;;;;1634732;72;739;-73
2021/07/29 04:36:26;;;;;;;;;;;25.20;52.70;;;;;;1627277;71;762;-73
2021/07/29 04:38:28;;;;;;;;;;;25.20;52.80;;;;;;1634724;71;711;-73
2021/07/29 04:40:30;;;;;;;;;;;25.10;52.80;;;;;;1637059;71;1136;-74
2021/07/29 04:42:32;;;;;;;;;;;25.20;52.80;;;;;;1623873;72;935;-72
2021/07/29 04:44:34;;;;;;;;;;;25.10;52.80;;;;;;1630467;71;787;-74
2021/07/29 04:46:36;;;;;;;;;;;25.10;52.80;;;;;;1636168;71;1951;-73
2021/07/29 04:48:38;;;;;;;;;;;25.20;52.80;;;;;;1634594;71;734;-72
2021/07/29 04:50:40;;;;;;;;;;;25.20;52.80;;;;;;1624680;71;1122;-74
2021/07/29 04:52:42;;;;;;;;;;;25.20;52.90;;;;;;1635132;72;721;-73
2021/07/29 04:54:43;;;;;;;;;;;25.10;52.80;;;;;;1632479;72;676;-73
2021/07/29 04:56:45;;;;;;;;;;;25.20;52.80;;;;;;1638591;71;752;-75
2021/07/29 04:58:49;;;;;;;;;;;25.20;52.80;;;;;;1628230;72;732;-74
2021/07/29 05:00:51;;;;;;;;;;;25.20;52.80;;;;;;1636523;71;698;-74
2021/07/29 05:02:53;;;;;;;;;;;25.20;52.90;;;;;;1636040;72;714;-73
2021/07/29 05:04:55;;;;;;;;;;;25.20;52.80;;;;;;1623046;71;931;-74
2021/07/29 05:06:56;;;;;;;;;;;25.20;52.80;;;;;;1631280;72;1940;-72
2021/07/29 05:08:58;;;;;;;;;;;25.20;52.70;;;;;;1634821;71;1170;-72
2021/07/29 05:11:02;;;;;;;;;;;25.10;52.90;;;;;;1628481;71;701;-73
2021/07/29 05:13:05;;;;;;;;;;;25.10;52.80;;;;;;1622289;72;994;-72
2021/07/29 05:15:07;;;;;;;;;;;25.20;52.90;;;;;;1625685;71;924;-72
2021/07/29 05:17:09;;;;;;;;;;;25.20;52.80;;;;;;1634565;71;764;-73
2021/07/29 05:19:11;;;;;;;;;;;25.10;53.10;;;;;;1633763;72;1125;-72
2021/07/29 05:21:13;;;;;;;;;;;25.20;53.20;;;;;;1630302;71;781;-74
2021/07/29 05:23:15;;;;;;;;;;;25.20;53.00;;;;;;1626531;71;778;-75
2021/07/29 05:25:22;;;;;;;;;;;25.20;52.50;;;;;;1631214;71;791;-65
2021/07/29 05:27:20;;;;;;;;;;;25.10;52.10;;;;;;1625801;72;1938;-70
2021/07/29 05:29:22;;;;;;;;;;;25.20;52.00;;;;;;1635052;71;1133;-69
2021/07/29 05:31:24;;;;;;;;;;;25.10;51.80;;;;;;1637819;71;767;-70
2021/07/29 05:33:26;;;;;;;;;;;25.20;51.70;;;;;;1621097;72;777;-70
2021/07/29 05:35:28;;;;;;;;;;;25.10;51.70;;;;;;1627035;71;811;-70
2021/07/29 05:37:30;;;;;;;;;;;25.10;51.70;;;;;;1630165;72;785;-74
2021/07/29 05:39:34;;;;;;;;;;;25.10;51.70;;;;;;1632052;72;1134;-72
2021/07/29 05:41:36;;;;;;;;;;;25.10;51.70;;;;;;1634203;71;698;-70
2021/07/29 05:43:38;;;;;;;;;;;25.10;51.60;;;;;;1634826;71;773;-71
2021/07/29 05:45:40;;;;;;;;;;;25.10;51.50;;;;;;1638324;71;800;-67
2021/07/29 05:47:43;;;;;;;;;;;25.10;51.80;;;;;;1631777;72;1936;-68
2021/07/29 05:49:45;;;;;;;;;;;25.10;51.90;;;;;;1630183;71;1170;-70
2021/07/29 05:51:47;;;;;;;;;;;25.10;51.90;;;;;;1629176;71;784;-76
2021/07/29 05:53:48;;;;;;;;;;;25.20;52.00;;;;;;1639946;71;791;-71
2021/07/29 05:55:51;;;;;;;;;;;25.20;51.70;;;;;;1626222;71;805;-68
2021/07/29 05:57:53;;;;;;;;;;;25.30;51.60;;;;;;1623746;72;710;-72
2021/07/29 05:59:55;;;;;;;;;;;25.30;51.40;;;;;;1636751;71;1149;-70
2021/07/29 06:01:57;;;;;;;;;;;25.20;51.20;;;;;;1642011;71;778;-71
2021/07/29 06:03:59;;;;;;;;;;;25.20;51.20;;;;;;1637035;72;760;-72
2021/07/29 06:06:01;;;;;;;;;;;25.20;51.20;;;;;;1621397;71;814;-69
2021/07/29 06:08:03;;;;;;;;;;;25.20;51.30;;;;;;1623472;71;1918;-70
2021/07/29 06:10:05;;;;;;;;;;;25.10;51.30;;;;;;1631497;71;1177;-72
2021/07/29 06:12:07;;;;;;;;;;;25.10;51.40;;;;;;1634503;71;821;-71
2021/07/29 06:14:08;;;;;;;;;;;25.10;51.40;;;;;;1622659;71;712;-72
2021/07/29 06:16:10;;;;;;;;;;;25.10;51.40;;;;;;1626051;71;743;-72
2021/07/29 06:18:13;;;;;;;;;;;25.10;51.30;;;;;;1626750;71;738;-71
2021/07/29 06:20:14;;;;;;;;;;;25.00;51.30;;;;;;1632797;71;1185;-70
2021/07/29 06:22:16;;;;;;;;;;;25.10;51.30;;;;;;1624088;71;686;-73
2021/07/29 06:24:18;;;;;;;;;;;25.00;51.30;;;;;;1632288;71;741;-72
2021/07/29 06:26:20;;;;;;;;;;;25.00;51.30;;;;;;1630957;71;763;-72
2021/07/29 06:28:22;;;;;;;;;;;25.00;51.30;;;;;;1629772;71;1936;-71
2021/07/29 06:30:24;;;;;;;;;;;25.00;51.40;;;;;;1614032;71;1209;-68
2021/07/29 06:32:26;;;;;;;;;;;25.10;51.30;;;;;;1629333;72;756;-70
2021/07/29 06:34:28;;;;;;;;;;;25.10;51.50;;;;;;1623923;71;719;-70
2021/07/29 06:36:29;;;;;;;;;;;25.10;51.70;;;;;;1641919;72;756;-72
2021/07/29 06:38:31;;;;;;;;;;;25.10;51.70;;;;;;1625469;72;768;-73
2021/07/29 06:40:33;;;;;;;;;;;25.10;51.70;;;;;;1633942;71;1097;-70
2021/07/29 06:42:35;;;;;;;;;;;25.00;51.80;;;;;;1637902;71;785;-68
2021/07/29 06:44:39;;;;;;;;;;;25.00;51.80;;;;;;1630947;71;730;-70
2021/07/29 06:46:41;;;;;;;;;;;25.10;51.70;;;;;;1634889;71;702;-70
2021/07/29 06:48:43;;;;;;;;;;;25.10;51.70;;;;;;1617970;71;1932;-70
2021/07/29 06:50:44;;;;;;;;;;;25.10;51.70;;;;;;1631557;71;1079;-70
2021/07/29 06:52:46;;;;;;;;;;;25.10;51.80;;;;;;1621528;72;741;-72
2021/07/29 06:54:48;;;;;;;;;;;25.10;51.80;;;;;;1624590;71;739;-71
2021/07/29 06:56:50;;;;;;;;;;;25.10;51.70;;;;;;1628442;71;809;-70
2021/07/29 06:58:52;;;;;;;;;;;25.10;51.80;;;;;;1630638;71;1143;-71
2021/07/29 07:00:54;;;;;;;;;;;25.10;51.80;;;;;;1632803;71;742;-71
2021/07/29 07:02:56;;;;;;;;;;;25.00;51.80;;;;;;1631848;71;730;-69
2021/07/29 07:04:59;;;;;;;;;;;25.10;51.80;;;;;;1625244;71;770;-70
2021/07/29 07:07:01;;;;;;;;;;;25.10;51.80;;;;;;1628186;71;1924;-70
2021/07/29 07:09:03;;;;;;;;;;;25.10;51.90;;;;;;1631598;71;1149;-70
2021/07/29 07:11:10;;;;;;;;;;;25.10;51.80;;;;;;1628286;71;836;-71
2021/07/29 07:13:08;;;;;;;;;;;25.20;51.90;;;;;;1630952;71;1409;-70
2021/07/29 07:15:11;;;;;;;;;;;25.30;51.90;;;;;;1626243;71;841;-71
2021/07/29 07:17:12;;;;;;;;;;;25.30;51.80;;;;;;1627696;72;710;-71
2021/07/29 07:19:14;;;;;;;;;;;25.20;51.50;;;;;;1628999;71;1274;-71
2021/07/29 07:21:16;;;;;;;;;;;25.30;51.40;;;;;;1638464;72;724;-70
2021/07/29 07:23:18;;;;;;;;;;;25.30;51.10;;;;;;1635703;71;772;-70
2021/07/29 07:25:20;;;;;;;;;;;25.30;50.90;;;;;;1627621;71;706;-68
2021/07/29 07:27:22;;;;;;;;;;;25.30;50.90;;;;;;1629043;71;1920;-71
2021/07/29 07:29:24;;;;;;;;;;;25.30;50.70;;;;;;1632878;72;1148;-70
2021/07/29 07:31:26;;;;;;;;;;;25.30;50.60;;;;;;1636599;71;786;-70
2021/07/29 07:33:27;;;;;;;;;;;25.20;51.00;;;;;;1632596;71;748;-71
2021/07/29 07:35:29;;;;;;;;;;;25.10;50.90;;;;;;1633841;71;793;-71
2021/07/29 07:37:31;;;;;;;;;;;25.10;51.00;;;;;;1627382;71;740;-70
2021/07/29 07:39:35;;;;;;;;;;;25.00;51.10;;;;;;1619266;72;2079;-67
2021/07/29 07:41:37;;;;;;;;;;;25.00;51.30;;;;;;1600652;72;1036;-70
2021/07/29 07:43:39;;;;;;;;;;;25.10;51.30;;;;;;1591062;73;812;-67
2021/07/29 07:45:41;;;;;;;;;;;25.10;51.30;;;;;;1593470;72;808;-68
2021/07/29 07:47:43;;;;;;;;;;;25.10;51.10;;;;;;1588422;73;1913;-69
2021/07/29 07:49:45;;;;;;;;;;;25.10;51.10;;;;;;1589660;73;1199;-69
2021/07/29 07:51:47;;;;;;;;;;;25.00;51.50;;;;;;1592292;73;778;-70
2021/07/29 07:53:49;;;;;;;;;;;25.00;52.10;;;;;;1594725;72;740;-69
2021/07/29 07:55:51;;;;;;;;;;;25.00;52.30;;;;;;1601117;73;752;-70
2021/07/29 07:57:53;;;;;;;;;;;25.00;52.30;;;;;;1603445;73;608;-68
2021/07/29 07:59:58;;;;;;;;;;;25.00;52.60;;;;;;1589585;73;1161;-70
2021/07/29 08:01:58;;;;;;;;;;;25.00;52.60;;;;;;1590738;72;1664;-68
2021/07/29 08:04:00;;;;;;;;;;;25.10;52.50;;;;;;1588783;73;869;-73
2021/07/29 08:06:02;;;;;;;;;;;25.10;52.40;;;;;;1587467;73;736;-76
2021/07/29 08:08:07;;;;;;;;;;;25.20;52.30;;;;;;1587448;73;1926;-74
2021/07/29 08:10:10;;;;;;;;;;;25.20;52.30;;;;;;1591705;73;1660;-74
2021/07/29 08:12:12;;;;;;;;;;;25.30;52.30;;;;;;1587853;73;738;-77
2021/07/29 08:14:14;;;;;;;;;;;25.30;52.40;;;;;;1583305;72;741;-75
2021/07/29 08:16:16;;;;;;;;;;;25.50;52.30;;;;;;1594935;73;776;-73
2021/07/29 08:18:18;;;;;;;;;;;25.60;52.20;;;;;;1599349;72;756;-75
2021/07/29 08:20:22;;;;;;;;;;;25.70;51.90;;;;;;1597778;72;1186;-74
2021/07/29 08:22:23;;;;;;;;;;;25.80;51.70;;;;;;1597036;72;1693;-72
2021/07/29 08:24:25;;;;;;;;;;;25.80;51.50;;;;;;1598568;73;748;-70
2021/07/29 08:26:27;;;;;;;;;;;25.80;51.30;;;;;;1596707;72;777;-76
2021/07/29 08:28:29;;;;;;;;;;;25.90;51.10;;;;;;1584211;72;1937;-75
2021/07/29 08:30:31;;;;;;;;;;;25.90;51.00;;;;;;1590094;73;1112;-75
2021/07/29 08:32:33;;;;;;;;;;;25.90;50.90;;;;;;1595153;72;772;-69
2021/07/29 08:34:35;;;;;;;;;;;26.00;51.50;;;;;;1568598;74;1367;-76
2021/07/29 08:36:37;;;;;;;;;;;26.00;51.10;;;;;;1605018;72;747;-73
2021/07/29 08:38:38;;;;;;;;;;;26.00;51.00;;;;;;1597888;72;801;-75
2021/07/29 08:40:40;;;;;;;;;;;26.00;50.90;;;;;;1591875;72;1140;-77
2021/07/29 08:42:42;;;;;;;;;;;26.00;50.80;;;;;;1588728;73;928;-79
2021/07/29 08:44:44;;;;;;;;;;;26.00;50.80;;;;;;1595801;72;780;-80
2021/07/29 08:46:46;;;;;;;;;;;26.00;50.80;;;;;;1595404;72;822;-80
2021/07/29 08:48:49;;;;;;;;;;;26.00;50.70;;;;;;1590056;72;1941;-78
2021/07/29 08:50:50;;;;;;;;;;;25.90;50.20;;;;;;1595744;72;1134;-69
2021/07/29 08:52:52;;;;;;;;;;;25.90;50.30;;;;;;1603510;73;776;-71
2021/07/29 08:54:54;;;;;;;;;;;25.90;49.30;;;;;;1608593;73;699;-73
2021/07/29 08:56:56;;;;;;;;;;;25.90;48.80;;;;;;1609773;72;651;-70
2021/07/29 08:58:58;;;;;;;;;;;25.90;49.20;;;;;;1607896;72;786;-75
2021/07/29 09:01:08;;;;;;;;;;;26.00;49.80;;;;;;1606964;73;1115;-72
2021/07/29 09:03:20;;;;;;;;;;;26.10;49.40;;;;;;1591652;72;1611;-71
2021/07/29 09:05:22;;;;;;;;;;;26.00;49.20;;;;;;1587468;73;743;-71
2021/07/29 09:07:24;;;;;;;;;;;26.00;49.50;;;;;;1590468;72;777;-71
2021/07/29 09:09:40;;;;;;;;;;;25.90;48.40;;;;;;1595209;72;1941;-72
2021/07/29 09:11:42;;;;;;;;;;;25.90;48.50;;;;;;1596999;72;1074;-70
2021/07/29 09:13:45;;;;;;;;;;;26.00;49.20;;;;;;1599707;72;797;-72
2021/07/29 09:15:47;;;;;;;;;;;26.00;49.30;;;;;;1605412;72;1612;-71
2021/07/29 09:17:49;;;;;;;;;;;26.00;49.20;;;;;;1601555;72;784;-74
2021/07/29 09:19:54;;;;;;;;;;;26.00;49.20;;;;;;1591379;73;1114;-73
2021/07/29 09:22:06;;;;;;;;;;;26.20;49.20;;;;;;1605540;72;664;-73
2021/07/29 09:24:09;;;;;;;;;;;26.10;49.10;;;;;;1591824;72;1769;-72
2021/07/29 09:26:11;;;;;;;;;;;26.10;49.10;;;;;;1598283;73;716;-71
2021/07/29 09:28:15;;;;;;;;;;;26.10;49.00;;;;;;1599659;72;1923;-74
2021/07/29 09:30:21;;;;;;;;;;;26.10;48.90;;;;;;1593578;72;1991;-71
2021/07/29 09:32:23;;;;;;;;;;;26.10;48.80;;;;;;1604777;72;780;-69
2021/07/29 09:34:25;;;;;;;;;;;26.00;48.90;;;;;;1605361;72;718;-72
2021/07/29 09:36:28;;;;;;;;;;;26.10;49.00;;;;;;1604382;72;755;-74
2021/07/29 09:38:35;;;;;;;;;;;26.10;49.00;;;;;;1599081;72;673;-73
2021/07/29 09:40:47;;;;;;;;;;;26.10;49.10;;;;;;1595535;73;1143;-71
2021/07/29 09:43:13;;;;;;;;;;;26.00;49.00;;;;;;1607932;72;777;-72
2021/07/29 09:45:12;;;;;;;;;;;26.00;48.80;;;;;;1603697;72;1726;-73
2021/07/29 09:47:14;;;;;;;;;;;26.10;49.00;;;;;;1608493;72;733;-71
2021/07/29 09:49:16;;;;;;;;;;;26.10;49.10;;;;;;1622382;72;1932;-70
2021/07/29 09:51:18;;;;;;;;;;;26.00;49.10;;;;;;1610861;72;763;-72
2021/07/29 09:53:20;;;;;;;;;;;26.10;49.00;;;;;;1605017;72;756;-71
2021/07/29 09:55:22;;;;;;;;;;;26.10;49.10;;;;;;1598935;72;734;-73
2021/07/29 09:57:23;;;;;;;;;;;26.10;49.10;;;;;;1610443;72;800;-73
2021/07/29 09:59:25;;;;;;;;;;;26.10;49.10;;;;;;1607901;72;1210;-74
2021/07/29 10:01:27;;;;;;;;;;;26.10;49.10;;;;;;1603671;72;780;-72
2021/07/29 10:03:29;;;;;;;;;;;26.10;49.10;;;;;;1601501;72;747;-72
2021/07/29 10:05:33;;;;;;;;;;;26.00;49.10;;;;;;1610889;73;792;-71
2021/07/29 10:07:36;;;;;;;;;;;26.10;49.10;;;;;;1596846;73;1907;-71
2021/07/29 10:09:44;;;;;;;;;;;26.00;49.20;;;;;;1593738;72;1942;-76
2021/07/29 10:11:43;;;;;;;;;;;26.00;49.30;;;;;;1604620;72;1675;-73
2021/07/29 10:13:45;;;;;;;;;;;26.00;49.40;;;;;;1593907;72;728;-73
2021/07/29 10:15:47;;;;;;;;;;;26.00;49.50;;;;;;1597484;72;944;-76
2021/07/29 10:18:02;;;;;;;;;;;26.00;49.50;;;;;;1599208;72;739;-73
2021/07/29 10:20:16;;;;;;;;;;;26.00;49.50;;;;;;1586548;73;1637;-71
2021/07/29 10:22:24;;;;;;;;;;;26.00;49.50;;;;;;1592950;73;783;-69
2021/07/29 10:24:25;;;;;;;;;;;26.00;49.60;;;;;;1589806;72;796;-71
2021/07/29 10:26:28;;;;;;;;;;;26.00;49.60;;;;;;1578692;74;1226;-72
2021/07/29 10:28:40;;;;;;;;;;;26.00;49.40;;;;;;1599052;72;1942;-70
2021/07/29 10:30:43;;;;;;;;;;;26.00;49.10;;;;;;1611084;72;1170;-72
2021/07/29 10:32:48;;;;;;;;;;;26.00;48.90;;;;;;1602705;72;1900;-68
2021/07/29 10:34:52;;;;;;;;;;;26.00;48.80;;;;;;1609769;72;715;-70
2021/07/29 10:36:54;;;;;;;;;;;26.00;48.60;;;;;;1596509;73;1652;-68
2021/07/29 10:38:57;;;;;;;;;;;26.00;48.60;;;;;;1597619;72;770;-69
2021/07/29 10:41:05;;;;;;;;;;;26.00;48.30;;;;;;1592631;73;1459;-70
2021/07/29 10:43:23;;;;;;;;;;;25.90;47.50;;;;;;1593055;72;1397;-71
2021/07/29 10:45:26;;;;;;;;;;;25.90;47.20;;;;;;1602821;72;760;-75
2021/07/29 10:47:36;;;;;;;;;;;25.90;47.30;;;;;;1588792;73;1850;-72
2021/07/29 10:49:39;;;;;;;;;;;25.90;47.10;;;;;;1591771;73;1941;-71
2021/07/29 10:51:59;;;;;;;;;;;25.80;47.40;;;;;;1586222;72;1183;-68
2021/07/29 10:54:01;;;;;;;;;;;25.90;47.30;;;;;;1584616;73;748;-74
2021/07/29 10:56:03;;;;;;;;;;;25.80;47.50;;;;;;1597395;72;702;-75
2021/07/29 10:58:10;;;;;;;;;;;25.80;47.50;;;;;;1596277;72;719;-72
2021/07/29 11:00:09;;;;;;;;;;;25.80;47.70;;;;;;1603788;72;1626;-70
2021/07/29 11:02:18;;;;;;;;;;;25.80;47.40;;;;;;1602065;72;759;-70
2021/07/29 11:04:14;;;;;;;;;;;25.70;47.40;;;;;;1608599;72;1564;-71
2021/07/29 11:06:28;;;;;;;;;;;25.80;47.40;;;;;;1585547;72;775;-73
2021/07/29 11:08:29;;;;;;;;;;;25.70;47.30;;;;;;1589650;72;1925;-72
2021/07/29 11:10:31;;;;;;;;;;;25.70;47.40;;;;;;1591940;73;1147;-71
2021/07/29 11:12:35;;;;;;;;;;;25.60;47.60;;;;;;1590822;73;745;-71
2021/07/29 11:14:36;;;;;;;;;;;25.70;47.60;;;;;;1591047;73;1628;-71
2021/07/29 11:16:38;;;;;;;;;;;25.70;47.80;;;;;;1593842;73;775;-73
2021/07/29 11:18:40;;;;;;;;;;;25.70;47.80;;;;;;1593648;73;768;-75
2021/07/29 11:20:42;;;;;;;;;;;25.70;47.80;;;;;;1597802;73;1132;-71
2021/07/29 11:22:45;;;;;;;;;;;25.70;47.80;;;;;;1608061;72;777;-71
2021/07/29 11:24:47;;;;;;;;;;;25.60;47.80;;;;;;1600116;72;745;-75
2021/07/29 11:26:49;;;;;;;;;;;25.60;47.80;;;;;;1600996;72;726;-71
2021/07/29 11:29:09;;;;;;;;;;;25.60;48.00;;;;;;1600593;73;1961;-72
2021/07/29 11:31:11;;;;;;;;;;;25.70;48.00;;;;;;1596955;72;797;-71
2021/07/29 11:33:20;;;;;;;;;;;25.60;48.00;;;;;;1578955;74;1107;-71
2021/07/29 11:35:22;;;;;;;;;;;25.60;48.10;;;;;;1596507;72;695;-71
2021/07/29 11:37:24;;;;;;;;;;;25.60;48.00;;;;;;1566556;74;1178;-72
2021/07/29 11:39:26;;;;;;;;;;;25.70;48.00;;;;;;1575559;74;1263;-73
2021/07/29 11:41:29;;;;;;;;;;;25.70;48.10;;;;;;1573513;74;1208;-72
2021/07/29 11:43:31;;;;;;;;;;;25.70;48.10;;;;;;1597869;73;775;-76
2021/07/29 11:45:33;;;;;;;;;;;25.60;47.90;;;;;;1596654;72;751;-71
2021/07/29 11:47:38;;;;;;;;;;;25.70;48.00;;;;;;1593252;72;731;-72
2021/07/29 11:49:47;;;;;;;;;;;25.60;47.80;;;;;;1592589;73;1921;-72
2021/07/29 11:52:04;;;;;;;;;;;25.60;47.80;;;;;;1608878;72;855;-72
2021/07/29 11:54:06;;;;;;;;;;;25.60;47.80;;;;;;1595032;73;813;-72
2021/07/29 11:56:09;;;;;;;;;;;25.60;47.80;;;;;;1607719;72;783;-72
2021/07/29 11:58:13;;;;;;;;;;;25.60;48.00;;;;;;1610493;72;719;-71
2021/07/29 12:00:14;;;;;;;;;;;25.60;48.10;;;;;;1612125;72;1664;-72
2021/07/29 12:02:18;;;;;;;;;;;25.50;48.00;;;;;;1595373;72;798;-71
2021/07/29 12:04:20;;;;;;;;;;;25.50;48.20;;;;;;1595527;73;1773;-72
2021/07/29 12:06:22;;;;;;;;;;;25.60;48.10;;;;;;1588668;72;759;-72
2021/07/29 12:08:24;;;;;;;;;;;25.50;48.10;;;;;;1602654;72;782;-75
2021/07/29 12:10:26;;;;;;;;;;;25.60;48.20;;;;;;1599678;73;1937;-73
2021/07/29 12:12:28;;;;;;;;;;;25.60;48.00;;;;;;1591993;73;810;-72
2021/07/29 12:14:30;;;;;;;;;;;25.50;48.10;;;;;;1605150;72;724;-72